Time;durP1;ratioP1;P1;durP2;ratioP2;P2;SDS_P1;SDS_P2;PMS_P1;PMS_P2;Temp;Humidity;BMP_temperature;BMP_pressure;BME280_temperature;BME280_humidity;BME280_pressure;Samples;Min_cycle;Max_cycle;Signal;HPM_P1;HPM_P2
2021/06/15 00:00:38;;;;;;;1.88;0.90;;;;;;;16.99;52.13;99303.16;5073923;28;20114;-77
2021/06/15 00:03:03;;;;;;;1.30;0.55;;;;;;;17.17;52.15;99338.88;5073993;28;20029;-77
2021/06/15 00:05:29;;;;;;;1.70;0.88;;;;;;;17.31;52.07;99349.13;5072724;28;20481;-77
2021/06/15 00:07:54;;;;;;;0.80;0.60;;;;;;;17.27;52.04;99341.81;5073957;28;20032;-78
2021/06/15 00:10:23;;;;;;;2.95;0.95;;;;;;;16.98;51.95;99288.19;5073832;28;20085;-77
2021/06/15 00:12:51;;;;;;;1.00;0.80;;;;;;;17.35;51.79;99342.31;5073655;28;20024;-76
2021/06/15 00:15:17;;;;;;;0.90;0.80;;;;;;;16.98;52.19;99284.72;5072360;28;20089;-76
2021/06/15 00:17:44;;;;;;;2.60;0.70;;;;;;;17.38;51.95;99344.53;5073662;28;20099;-76
2021/06/15 00:20:11;;;;;;;1.77;0.80;;;;;;;17.40;51.83;99342.44;5073886;28;20024;-78
2021/06/15 00:22:36;;;;;;;1.15;0.73;;;;;;;17.41;51.85;99341.41;5073324;28;20028;-77
2021/06/15 00:25:03;;;;;;;1.73;0.80;;;;;;;16.81;51.50;99263.19;5073550;28;20013;-77
2021/06/15 00:27:30;;;;;;;2.70;0.85;;;;;;;17.34;51.88;99347.88;5073500;28;20024;-77
2021/06/15 00:29:56;;;;;;;1.13;0.55;;;;;;;17.11;51.72;99335.25;5073525;28;20054;-77
2021/06/15 00:32:21;;;;;;;1.33;0.70;;;;;;;16.90;51.74;99299.19;5073569;28;20028;-77
2021/06/15 00:34:46;;;;;;;2.45;0.88;;;;;;;16.95;51.96;99291.31;5073256;28;20035;-77
2021/06/15 00:37:12;;;;;;;2.28;0.90;;;;;;;17.24;51.71;99339.59;5073195;28;20032;-77
2021/06/15 00:39:37;;;;;;;2.13;0.82;;;;;;;17.17;52.09;99341.53;5072488;28;20020;-77
2021/06/15 00:42:05;;;;;;;2.58;0.90;;;;;;;17.02;51.83;99309.91;5072892;28;20505;-77
2021/06/15 00:44:31;;;;;;;1.10;0.60;;;;;;;17.10;52.08;99329.09;5073163;28;20489;-77
2021/06/15 00:46:57;;;;;;;1.08;0.80;;;;;;;16.39;52.55;99238.28;5072855;28;20035;-77
2021/06/15 00:49:27;;;;;;;1.10;0.80;;;;;;;16.48;52.08;99245.75;5072685;28;20033;-77
2021/06/15 00:51:54;;;;;;;2.55;0.70;;;;;;;17.06;52.38;99341.22;5073175;28;20033;-76
2021/06/15 00:54:20;;;;;;;2.28;0.90;;;;;;;17.00;52.49;99318.13;5072774;28;20020;-77
2021/06/15 00:56:46;;;;;;;0.80;0.80;;;;;;;16.73;52.44;99277.66;5072832;28;20477;-78
2021/06/15 00:59:12;;;;;;;1.10;0.70;;;;;;;16.83;52.52;99319.78;5073094;28;20087;-77
2021/06/15 01:01:37;;;;;;;1.50;0.73;;;;;;;16.60;52.41;99267.13;5071547;28;20100;-77
2021/06/15 01:04:03;;;;;;;1.30;0.73;;;;;;;16.81;52.63;99290.69;5071409;28;20042;-77
2021/06/15 01:06:53;;;;;;;0.90;0.80;;;;;;;16.61;52.71;99274.09;5072555;28;20153;-77
2021/06/15 01:09:32;;;;;;;3.42;0.85;;;;;;;16.88;52.36;99316.44;5072342;28;20416;-77
2021/06/15 01:12:32;;;;;;;3.28;1.00;;;;;;;16.66;52.86;99281.44;5072868;28;20103;-77
2021/06/15 01:15:15;;;;;;;2.05;0.85;;;;;;;17.03;52.52;99343.53;5072613;28;20103;-77
2021/06/15 01:17:49;;;;;;;1.15;0.77;;;;;;;17.11;52.47;99344.06;5072632;28;20479;-77
2021/06/15 01:20:15;;;;;;;2.42;1.13;;;;;;;17.14;52.54;99351.63;5072426;28;20050;-76
2021/06/15 01:22:44;;;;;;;2.70;1.23;;;;;;;17.21;52.38;99353.41;5072384;28;20024;-76
2021/06/15 01:25:20;;;;;;;1.95;0.73;;;;;;;17.21;52.20;99345.38;5072327;28;20021;-76
2021/06/15 01:27:46;;;;;;;1.70;0.70;;;;;;;17.18;52.07;99353.84;5072821;28;20032;-77
2021/06/15 01:30:13;;;;;;;2.47;0.80;;;;;;;16.96;52.07;99319.63;5073350;28;20453;-77
2021/06/15 01:32:44;;;;;;;2.22;0.80;;;;;;;16.92;52.35;99320.28;5072420;28;20024;-77
2021/06/15 01:35:11;;;;;;;3.25;1.25;;;;;;;16.96;51.98;99300.13;5072076;28;20099;-76
2021/06/15 01:37:49;;;;;;;5.20;1.10;;;;;;;17.08;51.93;99325.81;5071867;28;20508;-77
2021/06/15 01:40:19;;;;;;;1.83;0.85;;;;;;;17.04;51.87;99307.81;5071834;28;20081;-77
2021/06/15 01:42:54;;;;;;;2.42;1.00;;;;;;;17.21;51.82;99350.72;5072027;28;20028;-78
2021/06/15 01:45:39;;;;;;;2.45;1.00;;;;;;;17.23;51.68;99340.63;5072078;28;20470;-78
2021/06/15 01:48:31;;;;;;;2.85;1.17;;;;;;;16.65;51.86;99258.47;5071730;28;20024;-77
2021/06/15 01:51:00;;;;;;;1.83;0.80;;;;;;;16.90;52.14;99311.69;5071510;28;20020;-78
2021/06/15 01:53:26;;;;;;;1.30;1.00;;;;;;;16.20;51.92;99189.47;5071575;28;20032;-76
2021/06/15 01:55:53;;;;;;;1.63;0.82;;;;;;;16.93;51.93;99317.41;5071809;28;20501;-77
2021/06/15 01:58:22;;;;;;;1.90;1.05;;;;;;;17.08;52.36;99349.81;5071879;28;20028;-77
2021/06/15 02:00:50;;;;;;;2.15;1.00;;;;;;;17.01;52.13;99325.09;5071582;28;20416;-77
2021/06/15 02:03:15;;;;;;;1.95;0.93;;;;;;;16.64;52.13;99288.81;5071496;28;20028;-77
2021/06/15 02:05:53;;;;;;;2.40;1.17;;;;;;;16.69;52.24;99289.81;5071672;28;20409;-77
2021/06/15 02:08:25;;;;;;;1.70;1.13;;;;;;;17.03;52.23;99341.69;5071756;28;20021;-77
2021/06/15 02:10:51;;;;;;;;;;;;;;;16.83;53.23;99349.13;5072122;28;20397;-77
2021/06/15 02:13:18;;;;;;;2.80;0.90;;;;;;;16.81;52.45;99324.53;5071626;28;19915;-77
2021/06/15 02:15:44;;;;;;;3.70;1.20;;;;;;;16.87;52.62;99331.63;5071452;28;20405;-77
2021/06/15 02:18:10;;;;;;;2.67;1.45;;;;;;;16.73;52.88;99311.50;5071588;28;20028;-77
2021/06/15 02:20:43;;;;;;;3.67;1.20;;;;;;;16.91;52.71;99345.31;5071547;28;20044;-77
2021/06/15 02:23:11;;;;;;;2.38;1.30;;;;;;;16.40;53.38;99290.53;5071389;28;20032;-77
2021/06/15 02:25:39;;;;;;;5.97;1.10;;;;;;;16.70;53.57;99333.28;5071290;28;20028;-77
2021/06/15 02:28:05;;;;;;;2.22;1.10;;;;;;;16.11;53.29;99242.25;5071298;28;20029;-77
2021/06/15 02:30:30;;;;;;;2.85;1.40;;;;;;;16.53;53.13;99299.19;5071329;28;20032;-77
2021/06/15 02:33:05;;;;;;;4.63;1.50;;;;;;;16.38;53.66;99287.28;5071078;28;20407;-77
2021/06/15 02:35:31;;;;;;;1.98;0.95;;;;;;;16.60;53.51;99323.09;5071055;28;20032;-77
2021/06/15 02:38:06;;;;;;;2.28;1.20;;;;;;;16.77;53.46;99337.50;5071247;28;20036;-77
2021/06/15 02:40:32;;;;;;;2.72;1.23;;;;;;;16.43;53.41;99279.44;5071210;28;20550;-77
2021/06/15 02:42:59;;;;;;;2.58;1.25;;;;;;;16.63;53.34;99306.66;5071342;28;20415;-77
2021/06/15 02:45:29;;;;;;;1.20;1.10;;;;;;;16.53;53.41;99296.53;5071289;28;20020;-77
2021/06/15 02:47:59;;;;;;;2.90;1.20;;;;;;;16.37;53.02;99259.00;5071392;28;20569;-77
2021/06/15 02:50:28;;;;;;;3.67;1.40;;;;;;;16.17;53.09;99227.22;5071174;28;20024;-77
2021/06/15 02:53:00;;;;;;;3.22;1.20;;;;;;;16.46;53.04;99279.78;5071051;28;20033;-77
2021/06/15 02:55:43;;;;;;;2.05;1.20;;;;;;;16.91;53.06;99354.16;5070901;28;20043;-76
2021/06/15 02:58:09;;;;;;;3.22;1.77;;;;;;;16.92;53.30;99357.63;5071018;28;20493;-77
2021/06/15 03:00:35;;;;;;;3.03;1.58;;;;;;;16.39;53.28;99284.38;5070956;28;20065;-77
2021/06/15 03:03:04;;;;;;;5.75;1.50;;;;;;;16.64;53.16;99315.47;5070107;28;20040;-77
2021/06/15 03:05:30;;;;;;;4.78;1.40;;;;;;;16.99;52.79;99364.50;5075019;28;20055;-77
2021/06/15 03:07:55;;;;;;;1.65;1.50;;;;;;;16.45;52.86;99280.81;5074944;28;20528;-78
2021/06/15 03:10:23;;;;;;;1.92;1.20;;;;;;;16.83;52.82;99343.78;5074911;28;20025;-77
2021/06/15 03:12:56;;;;;;;4.30;1.30;;;;;;;16.37;52.88;99272.31;5073548;28;20107;-77
2021/06/15 03:15:46;;;;;;;3.38;1.20;;;;;;;16.70;53.21;99331.41;5074770;28;20163;-77
2021/06/15 03:18:32;;;;;;;4.45;1.73;;;;;;;16.99;52.92;99374.38;5074638;28;20029;-77
2021/06/15 03:21:02;;;;;;;2.40;1.20;;;;;;;16.45;52.78;99299.47;5074642;28;20386;-77
2021/06/15 03:23:33;;;;;;;3.88;1.45;;;;;;;17.04;52.80;99377.19;5074765;28;20031;-76
2021/06/15 03:26:03;;;;;;;3.45;1.40;;;;;;;16.42;52.74;99272.47;5074702;28;20117;-77
2021/06/15 03:28:31;;;;;;;5.93;1.65;;;;;;;16.70;52.49;99307.44;5073398;28;20071;-78
2021/06/15 03:30:58;;;;;;;3.55;1.30;;;;;;;16.75;52.73;99312.09;5074615;28;20032;-76
2021/06/15 03:33:23;;;;;;;2.25;1.10;;;;;;;17.09;52.56;99367.50;5074746;28;20025;-78
2021/06/15 03:35:53;;;;;;;2.83;1.25;;;;;;;16.62;52.66;99301.56;5074820;28;20040;-78
2021/06/15 03:38:19;;;;;;;4.07;1.42;;;;;;;17.11;52.77;99384.09;5074136;28;20028;-77
2021/06/15 03:40:50;;;;;;;3.63;1.50;;;;;;;17.10;52.98;99390.47;5074230;28;20052;-77
2021/06/15 03:43:17;;;;;;;4.13;1.50;;;;;;;16.92;52.94;99347.78;5074049;28;20098;-77
2021/06/15 03:45:48;;;;;;;4.10;1.50;;;;;;;16.47;53.11;99284.09;5074026;28;20090;-77
2021/06/15 03:48:15;;;;;;;2.55;1.40;;;;;;;16.71;53.14;99324.25;5074350;28;20029;-77
2021/06/15 03:50:40;;;;;;;1.38;1.10;;;;;;;17.06;52.75;99373.25;5073912;28;20044;-76
2021/06/15 03:53:09;;;;;;;3.65;1.15;;;;;;;17.15;52.89;99365.78;5074082;28;20413;-76
2021/06/15 03:55:37;;;;;;;2.08;1.25;;;;;;;16.93;53.06;99324.59;5072644;28;20028;-77
2021/06/15 03:58:07;;;;;;;3.10;1.20;;;;;;;16.84;52.87;99310.75;5074074;28;20024;-77
2021/06/15 04:00:34;;;;;;;3.85;1.55;;;;;;;17.04;52.87;99353.97;5074190;28;20032;-76
2021/06/15 04:03:01;;;;;;;2.75;1.33;;;;;;;16.71;52.96;99290.41;5072707;28;20081;-77
2021/06/15 04:05:29;;;;;;;3.08;1.33;;;;;;;17.14;52.97;99346.28;5073948;28;20021;-76
2021/06/15 04:08:01;;;;;;;3.47;1.23;;;;;;;17.27;52.95;99387.19;5073900;28;20044;-77
2021/06/15 04:10:28;;;;;;;5.38;1.50;;;;;;;16.97;52.85;99342.59;5073704;28;20035;-78
2021/06/15 04:12:55;;;;;;;3.55;1.40;;;;;;;16.92;52.87;99334.44;5073887;28;20524;-78
2021/06/15 04:15:25;;;;;;;4.30;1.33;;;;;;;17.30;52.96;99394.72;5073460;28;20032;-75
2021/06/15 04:17:51;;;;;;;1.70;1.20;;;;;;;17.33;52.86;99389.75;5073460;28;20032;-78
2021/06/15 04:20:23;;;;;;;3.83;1.50;;;;;;;17.33;53.15;99392.44;5072298;28;20031;-77
2021/06/15 04:22:53;;;;;;;1.70;1.40;;;;;;;17.01;52.91;99356.28;5072314;28;20017;-75
2021/06/15 04:25:26;;;;;;;8.20;1.58;;;;;;;17.19;53.13;99366.97;5073567;28;20028;-77
2021/06/15 04:27:51;;;;;;;3.03;1.50;;;;;;;17.33;52.93;99397.75;5073522;28;20524;-77
2021/06/15 04:30:19;;;;;;;2.92;1.50;;;;;;;16.78;53.28;99307.13;5073151;28;20025;-75
2021/06/15 04:32:53;;;;;;;5.30;1.73;;;;;;;17.33;52.97;99397.75;5073473;28;20400;-78
2021/06/15 04:35:46;;;;;;;4.47;1.48;;;;;;;17.40;53.08;99405.69;5073506;28;20031;-76
2021/06/15 04:38:22;;;;;;;4.22;2.13;;;;;;;17.14;53.05;99370.31;5073398;28;20020;-77
2021/06/15 04:40:51;;;;;;;2.40;1.52;;;;;;;17.43;52.81;99410.56;5073049;28;20024;-77
2021/06/15 04:43:56;;;;;;;6.53;1.80;;;;;;;17.10;52.92;99371.78;5073172;28;20040;-76
2021/06/15 04:46:37;;;;;;;2.00;1.60;;;;;;;17.26;53.00;99382.88;5072863;28;20063;-77
2021/06/15 04:49:08;;;;;;;2.40;1.77;;;;;;;17.49;52.77;99420.34;5073012;28;20111;-77
2021/06/15 04:51:34;;;;;;;3.80;1.75;;;;;;;17.23;52.60;99367.31;5073342;28;20547;-76
2021/06/15 04:54:01;;;;;;;3.42;1.58;;;;;;;17.20;52.46;99373.09;5091060;28;20024;-76
2021/06/15 04:56:31;;;;;;;3.00;1.48;;;;;;;17.18;52.48;99361.84;5093112;28;20027;-76
2021/06/15 04:59:00;;;;;;;4.82;1.92;;;;;;;17.47;52.29;99404.56;5091031;28;20103;-77
2021/06/15 05:01:26;;;;;;;3.40;1.52;;;;;;;17.16;52.13;99359.41;5083456;28;20040;-77
2021/06/15 05:03:53;;;;;;;4.15;2.17;;;;;;;17.52;52.51;99424.41;5085634;28;20024;-78
2021/06/15 05:06:19;;;;;;;3.80;1.50;;;;;;;17.23;52.43;99372.66;5083025;28;20043;-74
2021/06/15 05:09:06;;;;;;;3.80;1.98;;;;;;;17.52;52.61;99416.41;5072433;28;20481;-75
2021/06/15 05:11:36;;;;;;;6.78;1.90;;;;;;;17.56;52.75;99434.41;5072895;28;20163;-77
2021/06/15 05:14:05;;;;;;;4.72;2.33;;;;;;;17.27;52.73;99390.66;5072270;28;20488;-77
2021/06/15 05:16:36;;;;;;;4.25;2.10;;;;;;;17.55;53.02;99445.31;5073035;28;20021;-77
2021/06/15 05:19:03;;;;;;;1.77;1.63;;;;;;;17.24;53.22;99430.31;5082214;28;20492;-77
2021/06/15 05:21:53;;;;;;;6.78;2.67;;;;;;;17.39;54.08;99444.09;5081322;28;20031;-77
2021/06/15 05:24:49;;;;;;;6.50;3.65;;;;;;;17.38;54.56;99447.78;5068980;28;20497;-77
2021/06/15 05:27:17;;;;;;;4.53;2.80;;;;;;;17.25;54.64;99431.94;5071846;28;20025;-76
2021/06/15 05:29:43;;;;;;;2.85;2.28;;;;;;;17.11;54.71;99426.78;5074304;28;20084;-77
2021/06/15 05:32:10;;;;;;;4.43;2.50;;;;;;;17.15;54.70;99437.81;5072057;28;20149;-78
2021/06/15 05:34:35;;;;;;;10.43;2.70;;;;;;;16.66;55.39;99367.56;5080550;28;20098;-76
2021/06/15 05:37:05;;;;;;;4.22;2.42;;;;;;;16.43;55.72;99344.19;5088850;28;20024;-76
2021/06/15 05:39:31;;;;;;;5.03;2.40;;;;;;;17.17;55.78;99461.59;5071842;28;20024;-77
2021/06/15 05:41:57;;;;;;;4.32;2.90;;;;;;;17.19;56.12;99459.53;5071699;28;20032;-76
2021/06/15 05:44:22;;;;;;;4.10;2.80;;;;;;;17.18;55.67;99464.03;5072029;28;20073;-76
2021/06/15 05:46:48;;;;;;;5.97;3.03;;;;;;;16.24;55.90;99331.84;5084874;28;20520;-77
2021/06/15 05:49:13;;;;;;;4.07;2.28;;;;;;;16.70;55.76;99397.25;5091626;28;20484;-76
2021/06/15 05:51:39;;;;;;;5.80;4.18;;;;;;;16.97;55.73;99443.94;5079623;28;20028;-76
2021/06/15 05:54:05;;;;;;;5.97;2.47;;;;;;;16.76;55.72;99433.69;5071809;28;20035;-77
2021/06/15 05:56:32;;;;;;;3.30;2.35;;;;;;;17.13;55.66;99469.22;5083063;28;20023;-77
2021/06/15 05:58:57;;;;;;;4.78;2.30;;;;;;;17.12;55.38;99463.09;5077167;28;20052;-76
2021/06/15 06:01:25;;;;;;;3.90;2.30;;;;;;;16.62;55.47;99406.31;5087898;28;20056;-78
2021/06/15 06:03:56;;;;;;;5.30;2.38;;;;;;;17.15;55.56;99475.97;5091893;28;20456;-76
2021/06/15 06:09:05;;;;;;;4.13;2.72;;;;;;;17.22;55.39;99461.75;5075944;28;20031;-76
2021/06/15 06:11:31;;;;;;;4.90;2.50;;;;;;;17.31;55.35;99479.09;5079028;28;20523;-77
2021/06/15 06:13:57;;;;;;;6.53;2.42;;;;;;;16.86;55.35;99382.53;5072051;28;20024;-76
2021/06/15 06:16:22;;;;;;;5.43;2.67;;;;;;;16.80;54.97;99362.88;5091759;28;20051;-76
2021/06/15 06:18:47;;;;;;;4.50;2.95;;;;;;;17.02;55.11;99406.75;5091210;28;20039;-76
2021/06/15 06:21:13;;;;;;;7.63;3.33;;;;;;;16.56;55.25;99339.75;5090734;28;20024;-76
2021/06/15 06:23:39;;;;;;;6.10;2.80;;;;;;;17.34;55.21;99466.13;5090187;28;20024;-77
2021/06/15 06:26:05;;;;;;;5.28;2.80;;;;;;;17.21;55.17;99442.25;5089254;28;20027;-76
2021/06/15 06:28:30;;;;;;;5.88;3.15;;;;;;;17.12;55.07;99417.72;5078615;28;20408;-76
2021/06/15 06:30:56;;;;;;;5.93;3.20;;;;;;;17.49;55.14;99479.06;5077023;28;20537;-76
2021/06/15 06:33:22;;;;;;;7.32;2.78;;;;;;;17.10;55.41;99411.81;5089856;28;20039;-76
2021/06/15 06:35:47;;;;;;;7.28;3.17;;;;;;;17.27;55.05;99427.19;5091422;28;20020;-76
2021/06/15 06:38:13;;;;;;;10.93;2.88;;;;;;;17.57;54.80;99465.41;5091066;28;20543;-77
2021/06/15 06:40:38;;;;;;;4.30;2.90;;;;;;;16.80;54.94;99353.03;5085861;28;20029;-76
2021/06/15 06:43:04;;;;;;;4.38;2.70;;;;;;;17.51;54.97;99447.63;5081610;28;20039;-77
2021/06/15 06:45:29;;;;;;;7.28;3.33;;;;;;;17.01;54.94;99349.09;5076432;28;20420;-79
2021/06/15 06:47:55;;;;;;;5.85;3.92;;;;;;;17.63;54.88;99435.13;5082846;28;20024;-75
2021/06/15 06:50:20;;;;;;;4.80;3.22;;;;;;;17.08;54.59;99349.00;5090764;28;20492;-76
2021/06/15 06:52:45;;;;;;;6.43;2.92;;;;;;;17.70;54.69;99443.91;5076654;28;20034;-76
2021/06/15 06:55:12;;;;;;;5.93;2.40;;;;;;;17.48;54.66;99408.03;5074826;28;20039;-76
2021/06/15 06:57:37;;;;;;;4.05;2.60;;;;;;;17.89;54.54;99457.22;5089941;28;20020;-75
2021/06/15 07:00:04;;;;;;;4.93;2.92;;;;;;;17.61;54.21;99421.19;5083700;28;20024;-75
2021/06/15 07:02:29;;;;;;;5.78;3.20;;;;;;;17.88;54.41;99456.41;5103928;28;20148;-75
2021/06/15 07:04:55;;;;;;;4.03;2.63;;;;;;;17.87;54.33;99460.13;5097027;28;20111;-74
2021/06/15 07:07:20;;;;;;;5.45;2.38;;;;;;;17.60;54.23;99416.09;5087733;28;20020;-75
2021/06/15 07:09:46;;;;;;;8.35;2.70;;;;;;;17.73;54.53;99448.78;5075219;28;20025;-76
2021/06/15 07:12:13;;;;;;;6.05;2.72;;;;;;;17.58;54.87;99415.50;5079703;28;20563;-76
2021/06/15 07:14:39;;;;;;;5.15;3.00;;;;;;;17.43;55.19;99414.06;5085299;28;20055;-76
2021/06/15 07:17:04;;;;;;;4.78;2.67;;;;;;;17.39;55.35;99396.88;5096176;28;20035;-76
2021/06/15 07:19:30;;;;;;;5.85;2.58;;;;;;;17.66;55.80;99441.88;5078898;28;20078;-76
2021/06/15 07:21:56;;;;;;;5.63;3.22;;;;;;;17.36;56.00;99388.50;5086181;28;20420;-77
2021/06/15 07:24:21;;;;;;;4.85;2.60;;;;;;;17.39;56.05;99388.03;5077624;28;20107;-76
2021/06/15 07:26:47;;;;;;;5.47;2.70;;;;;;;17.68;56.12;99423.81;5085246;28;20028;-77
2021/06/15 07:29:12;;;;;;;3.53;2.50;;;;;;;17.42;55.47;99374.25;5074701;28;20489;-77
2021/06/15 07:31:37;;;;;;;4.35;2.45;;;;;;;17.56;55.46;99397.03;5087960;28;20484;-77
2021/06/15 07:34:03;;;;;;;2.45;2.25;;;;;;;17.39;55.24;99390.72;5073954;28;20048;-77
2021/06/15 07:36:28;;;;;;;3.70;2.55;;;;;;;17.87;55.23;99436.09;5078692;28;20024;-76
2021/06/15 07:38:54;;;;;;;5.03;2.75;;;;;;;17.29;55.37;99353.06;5082029;28;20028;-76
2021/06/15 07:41:20;;;;;;;6.82;2.83;;;;;;;17.81;55.56;99442.31;5085869;28;20077;-76
2021/06/15 07:43:45;;;;;;;5.00;2.40;;;;;;;17.37;55.47;99371.44;5074290;28;20021;-77
2021/06/15 07:46:10;;;;;;;7.22;2.70;;;;;;;17.41;55.49;99370.75;5073197;28;20512;-77
2021/06/15 07:48:36;;;;;;;6.85;2.75;;;;;;;17.74;55.15;99401.53;5073794;28;20095;-77
2021/06/15 07:51:01;;;;;;;3.60;2.38;;;;;;;17.37;55.18;99371.44;5072338;28;20477;-77
2021/06/15 07:53:27;;;;;;;4.80;3.00;;;;;;;18.02;55.10;99438.34;5071994;28;20032;-77
2021/06/15 07:55:52;;;;;;;4.82;2.78;;;;;;;17.87;55.14;99403.22;5071791;28;20027;-76
2021/06/15 07:58:18;;;;;;;7.95;3.20;;;;;;;18.18;55.19;99442.19;5075850;28;20035;-76
2021/06/15 08:00:43;;;;;;;4.88;3.13;;;;;;;17.92;54.95;99388.16;5078742;28;20031;-75
2021/06/15 08:03:08;;;;;;;6.38;2.90;;;;;;;17.91;54.39;99404.41;5083265;28;20020;-75
2021/06/15 08:05:34;;;;;;;6.47;3.30;;;;;;;18.27;54.63;99430.13;5076560;28;20024;-76
2021/06/15 08:08:01;;;;;;;3.78;2.58;;;;;;;18.03;54.53;99384.69;5072501;28;20063;-75
2021/06/15 08:10:26;;;;;;;3.58;2.38;;;;;;;17.94;54.15;99356.69;5094585;28;20016;-76
2021/06/15 08:12:53;;;;;;;7.15;3.42;;;;;;;17.87;54.16;99333.78;5104880;28;20169;-77
2021/06/15 08:15:19;;;;;;;6.88;3.10;;;;;;;18.21;53.95;99372.25;5093270;28;20066;-75
2021/06/15 08:17:45;;;;;;;7.55;2.78;;;;;;;18.39;53.82;99394.34;5074474;28;20041;-74
2021/06/15 08:20:11;;;;;;;4.00;2.85;;;;;;;18.43;53.76;99379.47;5074249;28;20047;-75
2021/06/15 08:22:37;;;;;;;9.13;5.40;;;;;;;18.70;53.66;99414.63;5074100;28;20039;-76
2021/06/15 08:25:04;;;;;;;6.20;3.17;;;;;;;18.73;53.54;99416.84;5093553;28;20067;-77
2021/06/15 08:27:31;;;;;;;10.45;4.05;;;;;;;18.70;53.54;99416.50;5096979;28;20467;-75
2021/06/15 08:29:56;;;;;;;5.80;2.80;;;;;;;18.39;53.48;99361.47;5101253;28;20573;-77
2021/06/15 08:32:22;;;;;;;5.78;2.97;;;;;;;18.66;53.85;99418.00;5091330;28;20020;-78
2021/06/15 08:34:47;;;;;;;6.13;2.80;;;;;;;18.64;53.93;99420.91;5071012;28;20082;-76
2021/06/15 08:37:13;;;;;;;3.03;2.70;;;;;;;18.40;54.19;99387.97;5074213;28;20016;-76
2021/06/15 08:39:38;;;;;;;11.15;2.92;;;;;;;18.14;54.09;99347.50;5104211;28;20072;-76
2021/06/15 08:42:06;;;;;;;9.23;3.00;;;;;;;18.58;53.94;99391.56;5092766;28;20106;-77
2021/06/15 08:44:31;;;;;;;4.50;2.42;;;;;;;18.75;54.10;99418.47;5094543;28;20023;-77
2021/06/15 08:46:57;;;;;;;5.88;2.58;;;;;;;18.22;53.97;99309.75;5094875;27;20031;-77
2021/06/15 08:49:22;;;;;;;6.32;2.78;;;;;;;18.75;54.00;99379.16;5092805;28;20401;-76
2021/06/15 08:51:48;;;;;;;4.07;2.45;;;;;;;18.71;53.64;99353.94;5086672;28;20058;-77
2021/06/15 08:54:17;;;;;;;6.63;2.90;;;;;;;19.16;53.70;99409.44;5103837;28;20026;-76
2021/06/15 08:56:44;;;;;;;9.10;2.60;;;;;;;19.30;53.20;99397.38;5104271;28;20419;-77
2021/06/15 08:59:18;;;;;;;5.30;2.42;;;;;;;19.40;53.21;99402.97;5112986;27;20028;-76
2021/06/15 09:01:49;;;;;;;4.00;2.33;;;;;;;19.03;52.82;99315.00;5106127;28;20035;-76
2021/06/15 09:04:15;;;;;;;6.10;3.95;;;;;;;19.64;52.38;99383.09;5078303;28;20032;-76
2021/06/15 09:06:41;;;;;;;5.75;3.75;;;;;;;19.85;52.11;99394.16;5076682;28;20115;-77
2021/06/15 09:09:07;;;;;;;9.75;3.90;;;;;;;19.98;51.55;99388.50;5088722;28;20499;-75
2021/06/15 09:12:05;;;;;;;5.28;3.10;;;;;;;20.05;51.00;99383.78;5087490;28;20124;-77
2021/06/15 09:14:48;;;;;;;6.10;3.08;;;;;;;20.17;50.23;99381.88;5059924;28;20119;-77
2021/06/15 09:17:37;;;;;;;5.75;2.90;;;;;;;20.30;50.18;99378.03;5072193;28;20025;-77
2021/06/15 09:20:18;;;;;;;4.75;2.80;;;;;;;19.86;49.53;99293.97;5073655;28;20044;-76
2021/06/15 09:22:44;;;;;;;4.70;2.67;;;;;;;20.47;49.40;99378.84;5087643;28;20035;-77
2021/06/15 09:25:15;;;;;;;5.57;2.70;;;;;;;20.11;48.55;99301.63;5086076;28;20028;-76
2021/06/15 09:27:41;;;;;;;4.28;2.28;;;;;;;20.70;48.83;99366.28;5092127;28;20028;-77
2021/06/15 09:30:12;;;;;;;3.28;2.30;;;;;;;20.66;48.54;99331.09;5085486;28;20029;-77
2021/06/15 09:32:46;;;;;;;2.85;2.15;;;;;;;20.43;48.05;99273.13;5072811;28;20059;-77
2021/06/15 09:35:20;;;;;;;5.00;2.15;;;;;;;21.18;47.20;99365.56;5077296;28;20419;-77
2021/06/15 09:37:51;;;;;;;4.38;1.98;;;;;;;20.80;47.22;99300.16;5073282;28;20484;-76
2021/06/15 09:40:27;;;;;;;3.97;2.47;;;;;;;21.19;47.33;99365.31;5074758;28;20035;-75
2021/06/15 09:42:58;;;;;;;2.88;2.17;;;;;;;21.20;47.05;99363.44;5072212;28;20056;-76
2021/06/15 09:45:45;;;;;;;8.32;2.47;;;;;;;21.03;47.19;99351.97;5073245;28;20103;-76
2021/06/15 09:48:23;;;;;;;6.55;2.20;;;;;;;21.22;46.94;99372.91;5075052;28;20150;-77
2021/06/15 09:50:53;;;;;;;3.83;3.03;;;;;;;21.10;47.12;99352.59;5075691;28;20021;-75
2021/06/15 09:53:28;;;;;;;3.40;2.70;;;;;;;21.28;46.09;99370.28;5076102;28;20046;-75
2021/06/15 09:55:56;;;;;;;4.13;2.40;;;;;;;20.98;46.60;99331.25;5091651;28;20039;-75
2021/06/15 09:58:46;;;;;;;2.25;1.92;;;;;;;21.02;45.90;99367.25;5081090;28;20501;-76
2021/06/15 10:01:27;;;;;;;5.22;2.58;;;;;;;21.07;45.35;99363.81;5083678;28;20023;-77
2021/06/15 10:04:18;;;;;;;2.42;2.20;;;;;;;21.06;46.03;99363.00;5101028;28;20541;-78
2021/06/15 10:06:45;;;;;;;3.90;1.90;;;;;;;21.09;46.00;99364.38;5070811;28;20031;-77
2021/06/15 10:09:11;;;;;;;2.25;1.98;;;;;;;20.89;45.50;99335.44;5072035;28;20029;-75
2021/06/15 10:11:37;;;;;;;4.10;1.90;;;;;;;21.28;45.84;99376.44;5080020;28;20071;-75
2021/06/15 10:14:03;;;;;;;2.58;1.75;;;;;;;21.19;45.36;99348.41;5069307;28;20119;-77
2021/06/15 10:16:29;;;;;;;5.80;2.00;;;;;;;21.29;45.72;99375.38;5074928;28;20032;-77
2021/06/15 10:18:57;;;;;;;5.53;2.63;;;;;;;21.28;45.57;99375.63;5074233;28;20078;-77
2021/06/15 10:21:22;;;;;;;4.55;1.90;;;;;;;21.02;45.78;99340.41;5085254;28;20028;-75
2021/06/15 10:23:48;;;;;;;2.58;2.30;;;;;;;21.23;45.68;99360.28;5097667;28;20380;-77
2021/06/15 10:26:13;;;;;;;4.00;2.38;;;;;;;21.23;45.50;99365.66;5077311;28;20024;-75
2021/06/15 10:28:39;;;;;;;5.20;2.67;;;;;;;21.38;44.90;99373.88;5071162;28;20043;-75
2021/06/15 10:31:05;;;;;;;5.18;2.30;;;;;;;21.34;44.33;99367.38;5072805;28;20021;-76
2021/06/15 10:33:46;;;;;;;4.50;2.42;;;;;;;21.44;44.80;99347.88;5071159;28;20082;-73
2021/06/15 10:36:14;;;;;;;2.05;1.80;;;;;;;21.23;44.19;99291.28;5070805;28;20543;-76
2021/06/15 10:38:43;;;;;;;4.95;1.83;;;;;;;21.81;43.72;99359.53;5074668;28;20031;-77
2021/06/15 10:41:29;;;;;;;2.53;1.90;;;;;;;21.78;42.40;99346.63;5069799;28;20052;-77
2021/06/15 10:43:59;;;;;;;4.13;2.17;;;;;;;21.86;42.45;99340.75;5070346;28;20036;-73
2021/06/15 10:46:27;;;;;;;6.75;2.45;;;;;;;21.76;43.31;99329.13;5070095;28;20031;-74
2021/06/15 10:48:59;;;;;;;2.30;2.10;;;;;;;22.03;42.92;99343.34;5082280;28;20028;-77
2021/06/15 10:51:37;;;;;;;4.00;1.75;;;;;;;21.98;42.94;99329.03;5078093;28;20089;-78
2021/06/15 10:54:30;;;;;;;3.17;1.90;;;;;;;22.11;42.88;99336.69;5091346;28;20028;-76
2021/06/15 10:57:15;;;;;;;3.63;2.33;;;;;;;22.12;42.32;99335.59;5081362;28;20087;-74
2021/06/15 11:00:00;;;;;;;3.63;2.55;;;;;;;22.16;42.09;99329.47;5078339;28;20028;-77
2021/06/15 11:02:28;;;;;;;2.42;2.17;;;;;;;22.27;42.32;99342.97;5072420;28;20039;-76
2021/06/15 11:04:55;;;;;;;3.58;1.60;;;;;;;22.25;41.43;99313.63;5069324;28;20021;-76
2021/06/15 11:07:34;;;;;;;3.00;2.28;;;;;;;22.32;41.24;99308.88;5071003;28;20032;-76
2021/06/15 11:09:59;;;;;;;2.53;1.58;;;;;;;22.47;41.41;99308.97;5085888;28;20035;-76
2021/06/15 11:12:25;;;;;;;3.75;1.70;;;;;;;22.34;41.17;99295.16;5083773;28;20036;-75
2021/06/15 11:15:13;;;;;;;3.80;2.15;;;;;;;22.55;40.85;99323.78;5079893;28;20039;-77
2021/06/15 11:17:52;;;;;;;3.38;1.73;;;;;;;22.69;40.73;99316.06;5097617;28;20438;-77
2021/06/15 11:20:33;;;;;;;4.35;1.83;;;;;;;22.69;39.93;99297.22;5090019;28;20024;-77
2021/06/15 11:23:17;;;;;;;3.70;1.67;;;;;;;22.85;40.05;99306.19;5083798;28;20027;-76
2021/06/15 11:26:11;;;;;;;2.28;2.00;;;;;;;22.73;40.69;99271.38;5076613;28;20028;-77
2021/06/15 11:28:44;;;;;;;3.03;1.80;;;;;;;23.05;40.65;99311.66;5085581;28;20032;-76
2021/06/15 11:31:18;;;;;;;4.60;2.10;;;;;;;23.02;40.07;99296.00;5074377;28;20476;-76
2021/06/15 11:34:05;;;;;;;14.82;1.80;;;;;;;23.08;40.00;99295.78;5074222;28;20032;-76
2021/06/15 11:36:41;;;;;;;3.10;1.50;;;;;;;22.96;39.55;99278.22;5096125;28;20055;-77
2021/06/15 11:39:21;;;;;;;4.93;1.60;;;;;;;23.14;39.84;99289.34;5082523;28;20043;-75
2021/06/15 11:42:25;;;;;;;2.72;1.70;;;;;;;23.19;38.87;99285.84;5082513;28;20094;-76
2021/06/15 11:44:56;;;;;;;2.90;1.90;;;;;;;23.19;39.61;99282.34;5077440;28;20124;-75
2021/06/15 11:47:47;;;;;;;3.38;1.63;;;;;;;23.05;38.97;99292.81;5079092;28;20028;-76
2021/06/15 11:50:23;;;;;;;2.92;1.83;;;;;;;22.80;38.99;99231.59;5069861;28;20120;-77